渥太华麦克唐纳-卡蒂埃国际机场

CYOW

2022年5月16日

时间 代码 天气 温度 能见度 乌云 METAR/SPECI
09:00
V
18 °C 24 km 25.000 ft 010°   010° 6 kt METAR CYOW 161300Z 01006KT 15SM FEW010 FEW180 SCT200 BKN250 18/17 A2965 RMK SF1AC1CI3CI2 SF TR SLP043 DENSITY ALT 1200FT
08:08
V
16 °C 10 km 23.000 ft 300°   300° 8 kt METAR CYOW 161208Z 30008KT 6SM BR FEW004 SCT180 BKN230 16/16 A2967 RMK SF1AC2CI2 SLP048 DENSITY ALT 900FT
08:00
L
16 °C 4,8 km 400 ft 290°   290° 5 kt METAR CYOW 161200Z 29005KT 240V310 3SM R07/2600VP6000FT/N R32/2600VP6000FT/N BR BKN004 16/16 A2967 RMK SF6 SLP050 DENSITY ALT 900FT
07:32
L
16 °C 805 m 300 ft Var   000° 0 kt METAR CYOW 161132Z 00000KT 1/2SM R07/3500VP6000FT/N R32/1200V1400FT/N FG VV003 16/15 A2967 RMK FG8 CIG VRB 2-4 SLP051 DENSITY ALT 900FT
07:00
L
15 °C 201 m 200 ft Var   000° 0 kt METAR CYOW 161100Z 00000KT 1/8SM R07/1100V1400FT/N R32/0900V1000FT/N FG VV002 15/15 A2967 RMK FG8 CIG VRB 1-3 SLP050 DENSITY ALT 800FT
06:06
L
15 °C 201 m 200 ft 090°   090° 3 kt METAR CYOW 161006Z 09003KT 1/8SM R07/0800V1100FT/N R32/0700V0900FT/N FG VV002 15/15 A2967 RMK FG8 CIG VRB 1-3 SLP050 DENSITY ALT 800FT
06:00
L
15 °C 402 m 200 ft 080°   080° 4 kt METAR CYOW 161000Z 08004KT 1/4SM R07/1000V1400FT/N R32/0800V1100FT/N FG VV002 15/15 A2967 RMK FG8 CIG VRB 1-3 SLP049 DENSITY ALT 800FT
05:52
L
14 °C 805 m 200 ft 060°   060° 4 kt METAR CYOW 160952Z 06004KT 030V110 1/2SM R07/1600V1800FT/N R32/1200V1800FT/N FG VV002 14/14 A2967 RMK FG8 CIG VRB 1-3 SLP049 DENSITY ALT 700FT
05:00
V
15 °C 13 km 24.000 ft 310°   310° 3 kt METAR CYOW 160900Z 31003KT 8SM MIFG SCT090 BKN240 15/15 A2965 RMK AC4CI3 SLP041 DENSITY ALT 900FT
04:00
V
15 °C 8,0 km 9.000 ft 190°   190° 3 kt METAR CYOW 160800Z 19003KT 5SM BR MIFG BKN090 BKN130 15/15 A2966 RMK AC5AC2 SLP047 DENSITY ALT 900FT
03:22
L
16 °C 1,2 km 9.000 ft 160°   160° 3 kt METAR CYOW 160722Z 16003KT 3/4SM R07/3000VP6000FT/D R32/P6000FT/D BR BKN090 16/16 A2967 RMK FG5AC2 SLP050 DENSITY ALT 900FT
03:00
I
16 °C 3,2 km 12.000 ft 120°   120° 3 kt METAR CYOW 160700Z 12003KT 2SM R32/3000VP6000FT/D BR BKN120 16/16 A2968 RMK FG2AC5 SLP051 DENSITY ALT 900FT
02:27
I
16 °C 2,4 km 13.000 ft 130°   130° 3 kt METAR CYOW 160627Z 13003KT 1 1/2SM R07/3000V4000FT/D R32/3000V4000FT/N BR BKN130 16/16 A2968 RMK FG2AC5 SLP053 DENSITY ALT 900FT
02:00
M
16 °C 6,4 km 13.000 ft 130°   130° 2 kt METAR CYOW 160600Z 13002KT 4SM R32/3500V5000FT/N BCFG BR BKN130 16/16 A2969 RMK AC7 BCFG ALQDS SLP056 DENSITY ALT 900FT
01:42
I
16 °C 3,2 km 13.000 ft 110°   110° 3 kt METAR CYOW 160542Z 11003KT 2SM R07/5500VP6000FT/U R32/2600V5000FT/U BR BKN130 16/16 A2969 RMK FG2AC5 SLP057 DENSITY ALT 900FT
01:32
L
16 °C 1,2 km 2.000 ft 100°   100° 5 kt METAR CYOW 160532Z 10005KT 3/4SM R07/3500VP6000FT/U R32/2000V2400FT/N BR BKN020 16/16 A2969 RMK FG3SC4 SLP056 DENSITY ALT 900FT
01:00
L
16 °C 604 m 200 ft 070°   070° 5 kt METAR CYOW 160500Z 07005KT 3/8SM R07/1400V2000FT/N R32/2200V2400FT/N FG VV002 16/16 A2971 RMK FG8 CIG VRB 1-3 SLP061 DENSITY ALT 900FT
00:52
I
17 °C 1,6 km - 050°   050° 7 kt METAR CYOW 160452Z 05007KT 1SM R07/1800V2200FT/N R32/2600V3500FT/N BR SKC 17/16 A2971 RMK FG6 SLP062 DENSITY ALT 900FT
00:00
V
16 °C 24 km - 140°   140° 2 kt METAR CYOW 160400Z 14002KT 15SM FEW250 16/16 A2970 RMK CI1 SLP059 DENSITY ALT 900FT

2022年5月15日

时间 代码 天气 温度 能见度 乌云 METAR/SPECI
23:00
V
17 °C 24 km - 170°   170° 3 kt METAR CYOW 160300Z 17003KT 15SM FEW030 17/17 A2971 RMK SC2 SLP063 DENSITY ALT 1000FT
22:00
V
18 °C 24 km - 160°   160° 5 kt METAR CYOW 160200Z 16005KT 15SM FEW030CB SCT090 18/17 A2971 RMK CB1AC3 DIST LTNG SE SLP064 DENSITY ALT 1100FT
21:15
V
19 °C 24 km 5.500 ft 120°   120° 8 kt METAR CYOW 160115Z 12008KT 15SM FEW030CB BKN055 BKN110 19/18 A2971 RMK CB1SC4AC1 CB E-S OCNL LTGCC PRESFR SLP064 DENSITY ALT 1200FT
21:00
V
19 °C 16 km 5.500 ft 100°   100° 4 kt METAR CYOW 160100Z 10004KT 10SM TS VCSH FEW030CB BKN055 BKN110 19/18 A2974 RMK CB2SC3AC1 CB E-SW OCNL LTGCC SLP071 DENSITY ALT 1200FT
20:46
V
20 °C 16 km 7.000 ft 060°   060° 6 kt METAR CYOW 160046Z 06006KT 010V070 10SM -TSRA SCT030CB BKN070 20/18 A2974 RMK CB4AC3 CB S-SW AND N-NW OCNL LTNGCGCC SLP073 DENSITY ALT 1300FT
20:22
V
19 °C 24 km 7.500 ft Var   Var 2 kt METAR CYOW 160022Z VRB02KT 15SM TS FEW007 SCT030CB BKN075 BKN180 19/18 A2974 RMK CF1CB3AC3CI1 CF TR CB W MVNG SE AND CB NW-N FREQ LTNGCGCC SLP072 DENSITY ALT 1200FT
20:00
V
19 °C 24 km 7.500 ft 120°   120° 4 kt METAR CYOW 160000Z 12004KT 15SM TS FEW007 SCT030CB BKN075 BKN180 19/18 A2973 RMK CF1CB2AC3CI1 CB W MVNG E OCNL LTGCC SLP068 DENSITY ALT 1200FT
19:49
V
19 °C 24 km 8.000 ft 140°   140° 3 kt METAR CYOW 152349Z 14003KT 15SM TS FEW007 SCT030CB BKN080 BKN180 19/18 A2973 RMK CF1CB2AC2CI1 CB W MOVNG E OCNL LTNG SLP069 DENSITY ALT 1200FT
19:00
V
21 °C 24 km - 140°   140° 6 kt METAR CYOW 152300Z 14006KT 15SM FEW007 FEW030TCU SCT100 SCT180 21/18 A2971 RMK CF1TCU1AC1AC1 TCU NW-N SLP064 DENSITY ALT 1400FT
18:00
V
21 °C 24 km 11.000 ft 120°   120° 7 kt METAR CYOW 152200Z 12007KT 15SM FEW005 SCT030 BKN110 BKN240 21/19 A2972 RMK CF1CU2AC3CI1 TCU S SLP066 DENSITY ALT 1400FT
17:00
V
20 °C 24 km 18.000 ft 170°   170° 2 kt METAR CYOW 152100Z 17002KT 15SM FEW002 SCT030 BKN180 20/19 A2971 RMK CF1CU2AC4 TCU N SLP065 DENSITY ALT 1300FT
16:36
V
20 °C 24 km 3.000 ft 100°   100° 2 kt METAR CYOW 152036Z 10002KT 15SM BKN030 BKN060 20/19 A2972 RMK SC5SC2 TCU N SLP066 DENSITY ALT 1300FT
16:00
V
19 °C 24 km 3.000 ft 190°   190° 3 kt METAR CYOW 152000Z 19003KT 180V240 15SM -TSRA BKN030CB BKN240 19/18 A2974 RMK CB5CI1 SLP075 DENSITY ALT 1200FT
15:28
V
20 °C 19 km 3.000 ft Var   000° 0 kt METAR CYOW 151928Z 00000KT 12SM -TSRA BKN030CB BKN240 20/19 A2975 RMK CB5CI2 SLP077 DENSITY ALT 1300FT
15:09
I
21 °C 3,2 km 3.000 ft 040°   040° 4 kt METAR CYOW 151909Z 04004KT 2SM +TSRA OVC030CB 21/19 A2973 RMK CB8 SLP070 DENSITY ALT 1500FT
15:00
V
22 °C 24 km 3.000 ft 030°   030° 6 kt METAR CYOW 151900Z 03006KT 15SM -TSRA BKN030CB BKN240 22/19 A2973 RMK CB6CI1 SLP070 DENSITY ALT 1500FT
14:52
V
22 °C 16 km 3.000 ft 060°   060° 5 kt METAR CYOW 151852Z 06005KT 10SM -TSRA OVC030CB 22/19 A2973 RMK CB8 SLP069 DENSITY ALT 1500FT
14:31
M
22 °C 16 km 2.500 ft 110°   110° 7 kt METAR CYOW 151831Z 11007KT 10SM +SHRA BKN025TCU 22/18 A2974 RMK TCU6 WSHFT 1803 SLP071 DENSITY ALT 1600FT
14:00
V
23 °C 24 km 3.000 ft 030°   030° 6 kt METAR CYOW 151800Z 03006KT 15SM BKN030 BKN240 23/18 A2974 RMK CU5CI1 TCU ASOCTD SLP073 DENSITY ALT 1700FT
13:00
V
25 °C 24 km 9.000 ft 020°   020° 3 kt METAR CYOW 151700Z 02003KT 330V110 15SM SCT030 BKN090 BKN240 25/18 A2977 RMK CU4AC1CI1 SLP081 DENSITY ALT 1800FT
12:00
V
24 °C 24 km 9.000 ft 050°   050° 3 kt METAR CYOW 151600Z 05003KT 350V100 15SM SCT024 BKN090 BKN130 24/18 A2980 RMK CU3AC2AC2 SLP092 DENSITY ALT 1700FT
11:00
V
21 °C 24 km 4.800 ft Var   000° 0 kt METAR CYOW 151500Z 00000KT 15SM SCT040 OVC048 21/17 A2981 RMK SC4SC4 SLP097 DENSITY ALT 1400FT
10:52
V
21 °C 24 km 4.500 ft Var   Var 2 kt METAR CYOW 151452Z VRB02KT 15SM -SHRA FEW015 OVC045 21/17 A2981 RMK CF2SC6 SLP098 DENSITY ALT 1400FT
10:18
V
21 °C 24 km 4.400 ft Var   000° 0 kt METAR CYOW 151418Z 00000KT 15SM FEW015 OVC044 21/17 A2982 RMK CF2SC6 SLP100 DENSITY ALT 1300FT
10:00
V
21 °C 24 km 6.000 ft Var   000° 0 kt METAR CYOW 151400Z 00000KT 15SM -SHRA SCT047 OVC060 21/17 A2982 RMK SC3SC5 SLP099 DENSITY ALT 1300FT
09:00
V
20 °C 24 km 7.500 ft 190°   190° 6 kt METAR CYOW 151300Z 19006KT 15SM OVC075 20/17 A2982 RMK AC8 SLP098 DENSITY ALT 1200FT
08:00
V
19 °C 24 km 9.000 ft 170°   170° 5 kt METAR CYOW 151200Z 17005KT 15SM BKN090 BKN120 19/17 A2981 RMK AC6AC1 SLP097 DENSITY ALT 1100FT
07:00
V
17 °C 24 km 9.000 ft 160°   160° 6 kt METAR CYOW 151100Z 16006KT 15SM BKN090 BKN120 17/17 A2981 RMK AC5AC2 SLP097 DENSITY ALT 900FT
06:00
V
17 °C 24 km 7.500 ft 150°   150° 5 kt METAR CYOW 151000Z 15005KT 15SM BKN075 BKN090 17/16 A2982 RMK AC5AC2 DIST SH E-SE SLP099 DENSITY ALT 800FT
05:00
V
17 °C 24 km 12.000 ft 180°   180° 5 kt METAR CYOW 150900Z 18005KT 15SM FEW090 BKN120 17/16 A2981 RMK AC1AC6 PSBL SH SE-S SLP096 DENSITY ALT 800FT
04:00
V
17 °C 24 km 12.000 ft 100°   100° 6 kt METAR CYOW 150800Z 10006KT 15SM FEW080 BKN120 17/16 A2982 RMK AC1AC6 SLP099 DENSITY ALT 800FT
03:00
V
17 °C 24 km 12.000 ft 110°   110° 4 kt METAR CYOW 150700Z 11004KT 15SM FEW090 BKN120 17/15 A2983 RMK AC2AC5 SLP103 DENSITY ALT 900FT
02:00
V
17 °C 24 km 9.000 ft 160°   160° 5 kt METAR CYOW 150600Z 16005KT 15SM BKN090 BKN130 17/15 A2984 RMK AC5AC2 SLP106 DENSITY ALT 900FT
01:00
V
18 °C 24 km 12.000 ft Var   000° 0 kt METAR CYOW 150500Z 00000KT 15SM FEW090 BKN120 BKN150 18/15 A2985 RMK AC1AC5AC2 AC TR SLP109 DENSITY ALT 1000FT
00:00
V
19 °C 24 km 15.000 ft 160°   160° 4 kt METAR CYOW 150400Z 16004KT 15SM FEW120 BKN150 BKN240 19/15 A2986 RMK AC2AC3CI2 SLP111 DENSITY ALT 1100FT

2022年5月14日

时间 代码 天气 温度 能见度 乌云 METAR/SPECI
23:00
V
19 °C 24 km 15.000 ft 150°   150° 4 kt METAR CYOW 150300Z 15004KT 15SM BKN150 19/15 A2986 RMK AC7 SLP112 DENSITY ALT 1000FT
22:00
V
20 °C 24 km 16.000 ft 220°   220° 3 kt METAR CYOW 150200Z 22003KT 170V230 15SM FEW090 BKN160 20/14 A2986 RMK AC1AC6 SLP112 DENSITY ALT 1200FT
21:00
V
21 °C 24 km 24.000 ft 180°   180° 7 kt METAR CYOW 150100Z 18007KT 15SM FEW058 SCT090 BKN240 21/14 A2986 RMK CU2AC2CI2 SLP112 DENSITY ALT 1300FT
20:00
V
23 °C 24 km 24.000 ft 180°   180° 13 kt METAR CYOW 150000Z 18013KT 15SM SCT058 SCT090 BKN240 23/13 A2987 RMK CU3AC1CI3 AC TR PSBL TCU ASOCTD SLP115 DENSITY ALT 1500FT
19:00
V
28 °C 24 km 24.000 ft 170°   170° 7 kt METAR CYOW 142300Z 17007KT 15SM FEW060 BKN240 28/16 A2984 RMK CU2CI4 TCU ASOCTD SLP106 DENSITY ALT 2100FT
18:00
V
30 °C 24 km 24.000 ft 180°   180° 7 kt METAR CYOW 142200Z 18007KT 150V240 15SM SCT060 BKN240 30/15 A2984 RMK CU3CI3 TCU ASOCTD SLP107 DENSITY ALT 2300FT
17:00
V
30 °C 24 km 24.000 ft 160°   160° 5 kt METAR CYOW 142100Z 16005KT 110V230 15SM SCT060 BKN240 30/16 A2986 RMK CU3CI4 SLP113 DENSITY ALT 2300FT
16:00
V
31 °C 24 km 24.000 ft 190°   190° 8 kt METAR CYOW 142000Z 19008KT 050V210 15SM SCT060 BKN240 31/16 A2989 RMK CU3CI3 SLP122 DENSITY ALT 2300FT
15:00
V
30 °C 24 km 6.000 ft 210°   210° 6 kt METAR CYOW 141900Z 21006KT 140V230 15SM BKN060 BKN240 30/15 A2991 RMK CU5CI1 SLP129 DENSITY ALT 2200FT
14:00
V
30 °C 24 km 5.600 ft 180°   180° 9 kt METAR CYOW 141800Z 18009KT 110V220 15SM BKN056 BKN240 30/15 A2994 RMK CU5CI1 SLP139 DENSITY ALT 2200FT
13:00
V
29 °C 24 km 5.000 ft Var   Var 5 kt METAR CYOW 141700Z VRB05KT 15SM BKN050 BKN240 29/17 A2996 RMK CU5CI1 SLP146 DENSITY ALT 2100FT
12:00
V
28 °C 24 km - 140°   140° 6 kt METAR CYOW 141600Z 14006KT 090V170 15SM FEW044 FEW240 28/17 A2999 RMK CU1CI1 SLP156 DENSITY ALT 1900FT
11:00
V
27 °C 24 km - 200°   200° 7 kt METAR CYOW 141500Z 20007KT 170V280 15SM FEW040 FEW240 27/17 A3000 RMK CU1CI2 CU TR SLP162 DENSITY ALT 1700FT
10:00
V
25 °C 24 km - 200°   200° 5 kt METAR CYOW 141400Z 20005KT 160V280 15SM FEW240 25/17 A3002 RMK CI2 SLP167 DENSITY ALT 1500FT
较旧的数据

下载我们的应用程序

在您的手机和平板电脑上轻松访问所有航空天气。
有许多网站上没有的功能,如离线支持和个人机场列表。

Studio Eveline

Benalmádena
España